createdAt,value
2023-05-19T00:00:33.082Z,100938.72
2023-05-19T00:03:23.860Z,100947.28
2023-05-19T00:06:12.466Z,100955.44
2023-05-19T00:09:02.797Z,100959.03
2023-05-19T00:11:51.621Z,100973.75
2023-05-19T00:14:40.207Z,100987.50
2023-05-19T00:17:28.540Z,100984.31
2023-05-19T00:20:18.115Z,100970.16
2023-05-19T00:23:06.194Z,100980.50
2023-05-19T00:25:54.267Z,100977.31
2023-05-19T00:28:42.340Z,100988.47
2023-05-19T00:31:31.669Z,100993.44
2023-05-19T00:34:19.813Z,100994.03
2023-05-19T00:37:09.312Z,100984.66
2023-05-19T00:39:58.100Z,100972.72
2023-05-19T00:42:46.126Z,100907.84
2023-05-19T00:45:34.257Z,100822.13
2023-05-19T00:48:22.753Z,100796.47
2023-05-19T00:51:14.508Z,100772.00
2023-05-19T00:54:04.042Z,100735.19
2023-05-19T00:56:52.200Z,100717.09
2023-05-19T00:59:40.358Z,100692.44
2023-05-19T01:02:29.761Z,100662.63
2023-05-19T01:05:18.141Z,100633.00
2023-05-19T01:08:06.915Z,100609.38
2023-05-19T01:10:56.508Z,100577.56
2023-05-19T01:13:45.293Z,100577.59
2023-05-19T01:16:40.032Z,100533.44
2023-05-19T01:19:46.720Z,100523.94
2023-05-19T01:23:11.058Z,100740.19
2023-05-19T01:26:26.021Z,100722.13
2023-05-19T01:29:29.355Z,100694.88
2023-05-19T01:32:22.139Z,100673.03
2023-05-19T01:35:13.693Z,100678.41
2023-05-19T01:38:02.709Z,100655.94
2023-05-19T01:40:53.209Z,100632.09
2023-05-19T01:43:41.752Z,100602.91
2023-05-19T01:46:30.311Z,100579.06
2023-05-19T01:49:20.096Z,100566.75
2023-05-19T01:52:08.388Z,100537.16
2023-05-19T01:54:56.441Z,100519.28
2023-05-19T01:57:52.589Z,100484.53
2023-05-19T02:00:52.476Z,100465.84
2023-05-19T02:03:59.876Z,100435.47
2023-05-19T02:06:56.392Z,100409.28
2023-05-19T02:09:54.003Z,100389.63
2023-05-19T02:12:42.658Z,100381.09
2023-05-19T02:15:36.170Z,100344.00
2023-05-19T02:18:25.187Z,100324.16
2023-05-19T02:21:13.558Z,100294.38
2023-05-19T02:24:02.965Z,100290.16
2023-05-19T02:26:51.913Z,100286.03
2023-05-19T02:29:40.115Z,100285.25
2023-05-19T02:32:28.234Z,100282.44
2023-05-19T02:35:16.702Z,100277.53
2023-05-19T02:38:04.748Z,100277.53
2023-05-19T02:40:54.221Z,100269.84
2023-05-19T02:43:42.300Z,100291.28
2023-05-19T02:46:30.455Z,100287.91
2023-05-19T02:49:18.770Z,100260.75
2023-05-19T02:52:07.501Z,100247.25
2023-05-19T02:54:55.508Z,100231.97
2023-05-19T02:57:44.995Z,100210.53
2023-05-19T03:00:33.325Z,100186.91
2023-05-19T03:03:21.612Z,100150.44
2023-05-19T03:06:09.727Z,100131.78
2023-05-19T03:08:57.703Z,100113.91
2023-05-19T03:11:45.740Z,100087.69
2023-05-19T03:14:37.678Z,100069.09
2023-05-19T03:17:25.948Z,100062.53
2023-05-19T03:20:15.798Z,100065.19
2023-05-19T03:23:03.742Z,100049.97
2023-05-19T03:25:54.033Z,100043.84
2023-05-19T03:28:42.058Z,100026.00
2023-05-19T03:31:31.613Z,100040.88
2023-05-19T03:34:19.620Z,100036.50
2023-05-19T03:37:07.901Z,100015.69
2023-05-19T03:39:56.032Z,100011.50
2023-05-19T03:42:44.072Z,99991.31
2023-05-19T03:45:32.098Z,99966.31
2023-05-19T03:48:21.521Z,99953.41
2023-05-19T03:51:09.519Z,99939.31
2023-05-19T03:53:57.488Z,99897.72
2023-05-19T03:56:46.020Z,99908.25
2023-05-19T03:59:35.304Z,99887.75
2023-05-19T04:02:23.664Z,99884.78
2023-05-19T04:05:13.059Z,99848.94
2023-05-19T04:08:01.175Z,99848.72
2023-05-19T04:10:49.180Z,99826.75
2023-05-19T04:13:37.204Z,99812.41
2023-05-19T04:16:25.467Z,99802.09
2023-05-19T04:19:13.928Z,99797.06
2023-05-19T04:22:03.349Z,99802.03
2023-05-19T04:24:53.005Z,99794.41
2023-05-19T04:27:41.104Z,99790.16
2023-05-19T04:30:29.271Z,99768.72
2023-05-19T04:33:17.874Z,99755.53
2023-05-19T04:36:08.597Z,99736.94
2023-05-19T04:39:02.444Z,99710.78
2023-05-19T04:41:50.459Z,99697.44
2023-05-19T04:44:40.204Z,99695.75
2023-05-19T04:47:30.134Z,99743.16
2023-05-19T04:50:18.238Z,99749.59
2023-05-19T04:53:07.021Z,99745.88
2023-05-19T04:55:56.701Z,99752.19
2023-05-19T04:58:45.035Z,99767.34
2023-05-19T05:01:33.882Z,99776.78
2023-05-19T05:04:22.082Z,99793.22
2023-05-19T05:07:10.041Z,99787.13
2023-05-19T05:09:58.173Z,99796.13
2023-05-19T05:12:48.215Z,99788.03
2023-05-19T05:15:36.718Z,99773.09
2023-05-19T05:18:25.441Z,99777.13
2023-05-19T05:21:14.108Z,99781.41
2023-05-19T05:24:02.676Z,99796.56
2023-05-19T05:26:51.244Z,99795.66
2023-05-19T05:29:40.553Z,99811.84
2023-05-19T05:32:28.730Z,99813.53
2023-05-19T05:35:16.906Z,99823.53
2023-05-19T05:38:05.363Z,99824.09
2023-05-19T05:40:53.911Z,99833.41
2023-05-19T05:43:41.902Z,99855.03
2023-05-19T05:46:33.645Z,99861.66
2023-05-19T05:49:22.380Z,99878.72
2023-05-19T05:52:13.161Z,99894.25
2023-05-19T05:55:01.735Z,99915.06
2023-05-19T05:57:50.483Z,99937.28
2023-05-19T06:00:38.612Z,99961.41
2023-05-19T06:03:27.993Z,99985.00
2023-05-19T06:06:16.234Z,100005.88
2023-05-19T06:09:04.416Z,100031.09
2023-05-19T06:11:52.461Z,100043.56
2023-05-19T06:14:40.659Z,100051.19
2023-05-19T06:17:28.710Z,100054.81
2023-05-19T06:20:20.025Z,100077.91
2023-05-19T06:23:08.037Z,100079.03
2023-05-19T06:25:56.617Z,100069.81
2023-05-19T06:28:44.712Z,100059.81
2023-05-19T06:31:33.655Z,100075.22
2023-05-19T06:34:21.858Z,100057.78
2023-05-19T06:37:11.841Z,100069.72
2023-05-19T06:39:59.933Z,100058.91
2023-05-19T06:42:48.033Z,100067.72
2023-05-19T06:45:36.143Z,100065.56
2023-05-19T06:48:24.132Z,100061.63
2023-05-19T06:51:12.333Z,100074.47
2023-05-19T06:54:01.709Z,100094.53
2023-05-19T06:56:50.110Z,100100.19
2023-05-19T06:59:40.799Z,100105.84
2023-05-19T07:02:28.959Z,100140.56
2023-05-19T07:05:17.020Z,100175.44
2023-05-19T07:08:06.861Z,100213.72
2023-05-19T07:10:56.337Z,100222.53
2023-05-19T07:13:44.305Z,100259.63
2023-05-19T07:16:32.381Z,100247.69
2023-05-19T07:19:20.691Z,100250.91
2023-05-19T07:22:08.813Z,100257.63
2023-05-19T07:24:57.083Z,100294.22
2023-05-19T07:27:46.714Z,100282.19
2023-05-19T07:30:35.073Z,100297.84
2023-05-19T07:33:23.602Z,100366.81
2023-05-19T07:36:11.875Z,100446.47
2023-05-19T07:38:59.894Z,100506.81
2023-05-19T07:41:55.607Z,100641.34
2023-05-19T07:44:45.098Z,100820.69
2023-05-19T07:47:33.142Z,100805.22
2023-05-19T07:50:21.509Z,100730.00
2023-05-19T07:53:09.469Z,100671.31
2023-05-19T07:55:58.616Z,100609.44
2023-05-19T07:58:46.814Z,100551.75
2023-05-19T08:01:36.397Z,100494.06
2023-05-19T08:04:24.416Z,100505.75
2023-05-19T08:07:12.484Z,100508.84
2023-05-19T08:10:00.595Z,100511.84
2023-05-19T08:12:48.674Z,100532.44
2023-05-19T08:15:36.749Z,100513.94
2023-05-19T08:18:26.365Z,100500.13
2023-05-19T08:21:14.380Z,100483.34
2023-05-19T08:24:02.580Z,100470.31
2023-05-19T08:26:51.721Z,100462.38
2023-05-19T08:29:40.164Z,100426.94
2023-05-19T08:32:28.247Z,100404.94
2023-05-19T08:35:17.615Z,100394.91
2023-05-19T08:38:05.612Z,100400.00
2023-05-19T08:40:56.347Z,100402.63
2023-05-19T08:43:45.151Z,100377.34
2023-05-19T08:46:33.323Z,100384.84
2023-05-19T08:49:27.682Z,100370.31
2023-05-19T08:52:29.337Z,100318.69
2023-05-19T08:55:27.619Z,100292.41
2023-05-19T08:58:20.549Z,100442.50
2023-05-19T09:01:08.863Z,100443.47
2023-05-19T09:03:57.438Z,100466.44
2023-05-19T09:06:45.642Z,100441.66
2023-05-19T09:09:38.075Z,100457.03
2023-05-19T09:12:27.332Z,100502.56
2023-05-19T09:15:18.621Z,100557.53
2023-05-19T09:18:11.145Z,100556.59
2023-05-19T09:21:00.620Z,100570.78
2023-05-19T09:23:49.652Z,100597.00
2023-05-19T09:26:40.579Z,100565.53
2023-05-19T09:29:28.570Z,100546.47
2023-05-19T09:32:26.134Z,100570.00
2023-05-19T09:35:17.090Z,100570.53
2023-05-19T09:38:05.311Z,100575.13
2023-05-19T09:40:53.600Z,100556.72
2023-05-19T09:43:43.186Z,100625.94
2023-05-19T09:46:31.253Z,100645.31
2023-05-19T09:49:22.806Z,100676.41
2023-05-19T09:52:12.184Z,100672.53
2023-05-19T09:55:02.675Z,100660.19
2023-05-19T09:57:51.707Z,100597.16
2023-05-19T10:00:41.917Z,100644.44
2023-05-19T10:03:30.862Z,100692.66
2023-05-19T10:06:19.206Z,100746.22
2023-05-19T10:09:07.693Z,100790.59
2023-05-19T10:11:57.036Z,100753.31
2023-05-19T10:14:45.164Z,100767.81
2023-05-19T10:17:36.763Z,100740.69
2023-05-19T10:20:24.826Z,100736.78
2023-05-19T10:23:12.911Z,100808.19
2023-05-19T10:26:04.095Z,100823.16
2023-05-19T10:28:52.482Z,100794.28
2023-05-19T10:31:41.861Z,100737.22
2023-05-19T10:34:57.114Z,100735.59
2023-05-19T10:37:51.506Z,100705.47
2023-05-19T10:40:44.932Z,100740.63
2023-05-19T10:43:45.020Z,100680.91
2023-05-19T10:46:33.197Z,100620.84
2023-05-19T10:49:22.702Z,100519.00
2023-05-19T10:52:26.613Z,100410.44
2023-05-19T10:55:17.578Z,100480.78
2023-05-19T10:58:05.729Z,100380.41
2023-05-19T11:01:01.524Z,100280.31
2023-05-19T11:03:52.288Z,100274.59
2023-05-19T11:06:41.752Z,100259.66
2023-05-19T11:09:39.969Z,100287.56
2023-05-19T11:12:28.663Z,100191.38
2023-05-19T11:15:17.294Z,100187.56
2023-05-19T11:18:05.878Z,100127.44
2023-05-19T11:20:59.005Z,100140.56
2023-05-19T11:23:47.202Z,100124.97
2023-05-19T11:27:10.548Z,100081.69
2023-05-19T11:30:21.144Z,100151.31
2023-05-19T11:33:09.949Z,100150.00
2023-05-19T11:35:59.072Z,100122.41
2023-05-19T11:38:48.340Z,100050.38
2023-05-19T11:41:40.900Z,100010.06
2023-05-19T11:44:30.466Z,100051.88
2023-05-19T11:47:18.575Z,100027.19
2023-05-19T11:50:12.728Z,99958.38
2023-05-19T11:53:02.567Z,100027.63
2023-05-19T11:55:51.739Z,100001.72
2023-05-19T11:58:40.805Z,99949.47
2023-05-19T12:01:31.897Z,99932.25
2023-05-19T12:04:20.610Z,99934.50
2023-05-19T12:07:08.762Z,99969.00
2023-05-19T12:09:58.209Z,100031.03
2023-05-19T12:12:46.846Z,100105.69
2023-05-19T12:15:35.234Z,100013.78
2023-05-19T12:18:28.835Z,100097.75
2023-05-19T12:21:18.647Z,100009.16
2023-05-19T12:24:07.978Z,99897.09
2023-05-19T12:27:07.445Z,99902.19
2023-05-19T12:29:57.350Z,99952.53
2023-05-19T12:32:46.847Z,100088.84
2023-05-19T12:35:38.953Z,100145.53
2023-05-19T12:38:27.071Z,100001.72
2023-05-19T12:41:15.600Z,99944.03
2023-05-19T12:44:18.296Z,99951.75
2023-05-19T12:47:07.790Z,100003.75
2023-05-19T12:49:56.843Z,99998.56
2023-05-19T12:52:48.319Z,100010.31
2023-05-19T12:55:40.861Z,100253.31
2023-05-19T12:58:29.188Z,100128.72
2023-05-19T13:01:18.480Z,100179.94
2023-05-19T13:04:07.424Z,100125.84
2023-05-19T13:06:55.955Z,100119.31
2023-05-19T13:09:45.589Z,100129.13
2023-05-19T13:12:33.841Z,100317.09
2023-05-19T13:15:24.235Z,100095.06
2023-05-19T13:18:13.892Z,100353.16
2023-05-19T13:21:02.524Z,100214.09
2023-05-19T13:23:51.292Z,100098.25
2023-05-19T13:26:41.805Z,100184.72
2023-05-19T13:29:29.935Z,100315.63
2023-05-19T13:32:18.347Z,100295.81
2023-05-19T13:35:23.221Z,100209.53
2023-05-19T13:38:11.751Z,100416.31
2023-05-19T13:41:02.537Z,100363.66
2023-05-19T13:43:51.891Z,100300.94
2023-05-19T13:46:45.535Z,100425.16
2023-05-19T13:49:34.114Z,100506.38
2023-05-19T13:52:22.762Z,100496.78
2023-05-19T13:55:10.961Z,100527.22
2023-05-19T13:57:59.142Z,100643.59
2023-05-19T14:00:49.626Z,100552.31
2023-05-19T14:03:37.820Z,100835.91
2023-05-19T14:06:25.848Z,100588.88
2023-05-19T14:09:14.340Z,100731.16
2023-05-19T14:12:02.379Z,100634.59
2023-05-19T14:14:50.728Z,100687.06
2023-05-19T14:17:40.404Z,100969.56
2023-05-19T14:20:29.455Z,100888.09
2023-05-19T14:23:20.178Z,100930.94
2023-05-19T14:26:08.234Z,100911.28
2023-05-19T14:28:59.520Z,100944.78
2023-05-19T14:31:47.690Z,100899.84
2023-05-19T14:34:37.224Z,101009.94
2023-05-19T14:37:26.546Z,100993.84
2023-05-19T14:40:17.605Z,101049.34
2023-05-19T14:43:05.615Z,101115.09
2023-05-19T14:45:53.763Z,101283.56
2023-05-19T14:48:41.796Z,101295.38
2023-05-19T14:51:31.669Z,101359.88
2023-05-19T14:54:19.833Z,101380.19
2023-05-19T14:57:08.308Z,101351.75
2023-05-19T14:59:56.463Z,101394.22
2023-05-19T15:02:45.233Z,101423.56
2023-05-19T15:05:33.270Z,101342.13
2023-05-19T15:08:23.404Z,101422.97
2023-05-19T15:11:11.609Z,101591.00
2023-05-19T15:13:59.665Z,101596.94
2023-05-19T15:16:47.874Z,101741.59
2023-05-19T15:19:36.059Z,101701.22
2023-05-19T15:22:24.208Z,101684.38
2023-05-19T15:25:13.665Z,101946.66
2023-05-19T15:28:01.669Z,101962.75
2023-05-19T15:30:49.711Z,101895.06
2023-05-19T15:33:37.737Z,101920.16
2023-05-19T15:36:25.720Z,101986.44
2023-05-19T15:39:14.286Z,101933.69
2023-05-19T15:42:03.710Z,101981.03
2023-05-19T15:44:51.724Z,102025.00
2023-05-19T15:47:39.735Z,102152.75
2023-05-19T15:50:28.235Z,102161.69
2023-05-19T15:53:16.350Z,102125.47
2023-05-19T15:56:04.998Z,102177.00
2023-05-19T15:58:54.415Z,102235.22
2023-05-19T16:01:42.507Z,102230.25
2023-05-19T16:04:30.686Z,102220.34
2023-05-19T16:07:18.779Z,102230.16
2023-05-19T16:10:07.647Z,102268.84
2023-05-19T16:12:55.738Z,102274.22
2023-05-19T16:15:45.148Z,102312.75
2023-05-19T16:18:33.450Z,102328.06
2023-05-19T16:21:21.880Z,102304.59
2023-05-19T16:24:12.534Z,102342.19
2023-05-19T16:27:00.856Z,102406.59
2023-05-19T16:29:48.853Z,102436.97
2023-05-19T16:32:38.211Z,102427.84
2023-05-19T16:35:27.748Z,102402.44
2023-05-19T16:38:15.921Z,102425.47
2023-05-19T16:41:05.221Z,102419.34
2023-05-19T16:43:53.323Z,102422.56
2023-05-19T16:46:41.511Z,102422.38
2023-05-19T16:49:30.868Z,102438.03
2023-05-19T16:52:19.111Z,102428.53
2023-05-19T16:55:07.822Z,102383.94
2023-05-19T16:57:55.870Z,102443.44
2023-05-19T17:00:44.086Z,102441.00
2023-05-19T17:03:32.757Z,102447.28
2023-05-19T17:06:22.312Z,102454.03
2023-05-19T17:09:10.484Z,102093.50
2023-05-19T17:11:58.567Z,100296.19
2023-05-19T17:14:46.660Z,99660.19
2023-05-19T17:17:34.735Z,99146.03
2023-05-19T17:20:22.823Z,99028.03
2023-05-19T17:23:12.158Z,99059.22
2023-05-19T17:26:00.163Z,99353.59
2023-05-19T17:28:48.269Z,99419.50
2023-05-19T17:31:39.324Z,99489.25
2023-05-19T17:34:28.074Z,99520.78
2023-05-19T17:37:17.584Z,99554.06
2023-05-19T17:40:08.539Z,99587.91
2023-05-19T17:42:56.566Z,99633.56
2023-05-19T17:45:44.582Z,99652.75
2023-05-19T17:48:32.888Z,99656.22
2023-05-19T17:51:21.549Z,99667.44
2023-05-19T17:54:10.120Z,99660.53
2023-05-19T17:57:03.272Z,99682.59
2023-05-19T17:59:52.068Z,99675.38
2023-05-19T18:02:41.082Z,99653.31
2023-05-19T18:05:29.482Z,99649.63
2023-05-19T18:08:18.451Z,99642.31
2023-05-19T18:11:06.998Z,99647.16
2023-05-19T18:13:56.438Z,99637.41
2023-05-19T18:16:44.574Z,99654.00
2023-05-19T18:19:33.102Z,99642.00
2023-05-19T18:22:21.255Z,99637.34
2023-05-19T18:25:10.479Z,99628.81
2023-05-19T18:27:58.500Z,99626.94
2023-05-19T18:30:47.977Z,99621.97
2023-05-19T18:33:36.055Z,99611.03
2023-05-19T18:36:24.351Z,99611.41
2023-05-19T18:39:12.587Z,99594.44
2023-05-19T18:42:01.618Z,99588.81
2023-05-19T18:44:50.753Z,99577.56
2023-05-19T18:47:40.348Z,99589.91
2023-05-19T18:50:28.605Z,99593.06
2023-05-19T18:53:16.677Z,99595.25
2023-05-19T18:56:04.943Z,99590.06
2023-05-19T18:58:53.209Z,99587.22
2023-05-19T19:01:41.430Z,99588.84
2023-05-19T19:04:30.884Z,99603.56
2023-05-19T19:07:18.899Z,99608.84
2023-05-19T19:10:08.010Z,99624.31
2023-05-19T19:12:57.771Z,99620.19
2023-05-19T19:15:46.049Z,99640.03
2023-05-19T19:18:34.560Z,99611.06
2023-05-19T19:21:24.147Z,99615.78
2023-05-19T19:24:13.600Z,99610.56
2023-05-19T19:27:01.692Z,99608.53
2023-05-19T19:29:49.676Z,99598.38
2023-05-19T19:32:37.838Z,99578.28
2023-05-19T19:35:26.433Z,99565.53
2023-05-19T19:38:15.909Z,99547.78
2023-05-19T19:41:03.922Z,99520.88
2023-05-19T19:43:53.013Z,99490.06
2023-05-19T19:46:41.270Z,99483.84
2023-05-19T19:49:29.453Z,99472.38
2023-05-19T19:52:18.198Z,99452.53
2023-05-19T19:55:08.857Z,99463.31
2023-05-19T19:57:56.961Z,99498.81
2023-05-19T20:00:45.012Z,99525.41
2023-05-19T20:03:33.622Z,99496.63
2023-05-19T20:06:22.475Z,99463.16
2023-05-19T20:09:10.661Z,99446.72
2023-05-19T20:12:00.012Z,99435.25
2023-05-19T20:14:48.467Z,99418.53
2023-05-19T20:17:36.551Z,99427.97
2023-05-19T20:20:24.561Z,99437.38
2023-05-19T20:23:13.383Z,99446.81
2023-05-19T20:26:12.094Z,99447.28
2023-05-19T20:29:02.334Z,99455.41
2023-05-19T20:31:50.610Z,99436.56
2023-05-19T20:34:38.833Z,99437.41
2023-05-19T20:37:26.860Z,99425.69
2023-05-19T20:40:14.970Z,99426.25
2023-05-19T20:43:03.043Z,99427.06
2023-05-19T20:45:52.586Z,99437.50
2023-05-19T20:48:40.672Z,99424.72
2023-05-19T20:51:31.083Z,99434.66
2023-05-19T20:54:20.199Z,99432.03
2023-05-19T20:57:09.390Z,99458.66
2023-05-19T20:59:57.452Z,99451.13
2023-05-19T21:02:46.968Z,99476.72
2023-05-19T21:05:35.595Z,99487.69
2023-05-19T21:08:23.876Z,99501.47
2023-05-19T21:11:11.898Z,99511.69
2023-05-19T21:14:03.879Z,99515.06
2023-05-19T21:16:53.849Z,99546.66
2023-05-19T21:19:43.279Z,99552.63
2023-05-19T21:22:31.331Z,99548.22
2023-05-19T21:25:19.561Z,99558.41
2023-05-19T21:28:07.581Z,99564.13
2023-05-19T21:30:55.690Z,99589.94
2023-05-19T21:33:44.088Z,99597.72
2023-05-19T21:36:33.471Z,99621.19
2023-05-19T21:39:21.551Z,99648.56
2023-05-19T21:42:09.571Z,99669.66
2023-05-19T21:44:57.864Z,99697.25
2023-05-19T21:47:45.881Z,99729.53
2023-05-19T21:50:37.381Z,99731.13
2023-05-19T21:53:26.823Z,99690.47
2023-05-19T21:57:00.234Z,99707.63
2023-05-19T21:59:48.456Z,99719.63
2023-05-19T22:02:36.574Z,99771.16
2023-05-19T22:05:24.663Z,99792.25
2023-05-19T22:08:12.698Z,99776.63
2023-05-19T22:11:02.269Z,99762.03
2023-05-19T22:13:50.287Z,99780.22
2023-05-19T22:16:38.516Z,99723.72
2023-05-19T22:19:26.845Z,99744.06
2023-05-19T22:22:15.143Z,99751.34
2023-05-19T22:25:03.536Z,99746.13
2023-05-19T22:27:52.938Z,99741.47
2023-05-19T22:30:42.221Z,99744.53
2023-05-19T22:33:30.510Z,99759.59
2023-05-19T22:36:18.831Z,99765.59
2023-05-19T22:39:06.954Z,99772.31
2023-05-19T22:41:54.976Z,99779.13
2023-05-19T22:44:45.875Z,99788.69
2023-05-19T22:47:34.116Z,99806.88
2023-05-19T22:50:22.312Z,99826.91
2023-05-19T22:53:10.495Z,99832.88
2023-05-19T22:55:58.498Z,99855.22
2023-05-19T22:58:46.537Z,99864.06
2023-05-19T23:01:35.979Z,99760.69
2023-05-19T23:04:25.390Z,99790.38
2023-05-19T23:07:13.462Z,99811.69
2023-05-19T23:10:01.638Z,99806.75
2023-05-19T23:12:50.073Z,99814.78
2023-05-19T23:15:38.063Z,99840.00
2023-05-19T23:18:27.482Z,99878.47
2023-05-19T23:21:15.553Z,99852.41
2023-05-19T23:24:03.726Z,99875.53
2023-05-19T23:26:52.072Z,99921.22
2023-05-19T23:29:40.083Z,100006.97
2023-05-19T23:32:28.208Z,100125.47
2023-05-19T23:35:18.540Z,100139.75
2023-05-19T23:38:06.714Z,100152.25
2023-05-19T23:40:54.895Z,100165.66
2023-05-19T23:43:42.968Z,100165.66
2023-05-19T23:46:31.608Z,100184.25
2023-05-19T23:49:19.811Z,100182.69
2023-05-19T23:52:09.306Z,100173.41
2023-05-19T23:54:57.278Z,100178.44
2023-05-19T23:57:45.277Z,100179.47
